sensor_id;sensor_type;location;lat;lon;timestamp;P1;durP1;ratioP1;P2;durP2;ratioP2
70733;SDS011;58320;48.804;9.252;2023-02-01T00:00:48;5.63;;;2.67;;
70733;SDS011;58320;48.804;9.252;2023-02-01T00:03:14;5.93;;;3.20;;
70733;SDS011;58320;48.804;9.252;2023-02-01T00:05:40;6.32;;;2.45;;
70733;SDS011;58320;48.804;9.252;2023-02-01T00:08:05;5.93;;;2.90;;
70733;SDS011;58320;48.804;9.252;2023-02-01T00:10:31;6.25;;;2.85;;
70733;SDS011;58320;48.804;9.252;2023-02-01T00:12:57;4.80;;;2.53;;
70733;SDS011;58320;48.804;9.252;2023-02-01T00:15:22;4.72;;;2.65;;
70733;SDS011;58320;48.804;9.252;2023-02-01T00:17:52;5.23;;;2.80;;
70733;SDS011;58320;48.804;9.252;2023-02-01T00:20:19;7.78;;;3.50;;
70733;SDS011;58320;48.804;9.252;2023-02-01T00:22:45;5.75;;;2.75;;
70733;SDS011;58320;48.804;9.252;2023-02-01T00:25:11;4.80;;;2.40;;
70733;SDS011;58320;48.804;9.252;2023-02-01T00:27:37;5.93;;;2.88;;
70733;SDS011;58320;48.804;9.252;2023-02-01T00:30:02;5.33;;;2.97;;
70733;SDS011;58320;48.804;9.252;2023-02-01T00:32:28;5.00;;;2.80;;
70733;SDS011;58320;48.804;9.252;2023-02-01T00:34:56;5.20;;;3.00;;
70733;SDS011;58320;48.804;9.252;2023-02-01T00:37:22;5.47;;;2.60;;
70733;SDS011;58320;48.804;9.252;2023-02-01T00:39:48;6.45;;;2.50;;
70733;SDS011;58320;48.804;9.252;2023-02-01T00:42:15;4.75;;;2.67;;
70733;SDS011;58320;48.804;9.252;2023-02-01T00:44:41;5.23;;;2.60;;
70733;SDS011;58320;48.804;9.252;2023-02-01T00:47:06;5.28;;;2.50;;
70733;SDS011;58320;48.804;9.252;2023-02-01T00:49:32;5.30;;;2.50;;
70733;SDS011;58320;48.804;9.252;2023-02-01T00:51:58;4.10;;;2.00;;
70733;SDS011;58320;48.804;9.252;2023-02-01T00:54:24;4.82;;;2.20;;
70733;SDS011;58320;48.804;9.252;2023-02-01T00:56:49;4.10;;;2.40;;
70733;SDS011;58320;48.804;9.252;2023-02-01T00:59:15;4.38;;;2.35;;
70733;SDS011;58320;48.804;9.252;2023-02-01T01:01:41;4.43;;;2.50;;
70733;SDS011;58320;48.804;9.252;2023-02-01T01:04:07;5.47;;;2.40;;
70733;SDS011;58320;48.804;9.252;2023-02-01T01:06:33;4.78;;;2.58;;
70733;SDS011;58320;48.804;9.252;2023-02-01T01:09:00;5.22;;;2.28;;
70733;SDS011;58320;48.804;9.252;2023-02-01T01:11:30;4.22;;;2.40;;
70733;SDS011;58320;48.804;9.252;2023-02-01T01:14:00;4.30;;;2.33;;
70733;SDS011;58320;48.804;9.252;2023-02-01T01:16:27;4.47;;;2.25;;
70733;SDS011;58320;48.804;9.252;2023-02-01T01:18:55;4.70;;;2.55;;
70733;SDS011;58320;48.804;9.252;2023-02-01T01:21:41;4.10;;;2.05;;
70733;SDS011;58320;48.804;9.252;2023-02-01T01:24:06;4.63;;;2.30;;
70733;SDS011;58320;48.804;9.252;2023-02-01T01:26:32;5.25;;;2.58;;
70733;SDS011;58320;48.804;9.252;2023-02-01T01:29:01;3.85;;;1.98;;
70733;SDS011;58320;48.804;9.252;2023-02-01T01:31:28;4.40;;;2.07;;
70733;SDS011;58320;48.804;9.252;2023-02-01T01:33:56;3.35;;;1.70;;
70733;SDS011;58320;48.804;9.252;2023-02-01T01:36:24;4.32;;;2.13;;
70733;SDS011;58320;48.804;9.252;2023-02-01T01:38:51;4.63;;;1.80;;
70733;SDS011;58320;48.804;9.252;2023-02-01T01:41:21;3.83;;;2.20;;
70733;SDS011;58320;48.804;9.252;2023-02-01T01:47:14;3.88;;;1.80;;
70733;SDS011;58320;48.804;9.252;2023-02-01T01:49:41;4.15;;;1.63;;
70733;SDS011;58320;48.804;9.252;2023-02-01T01:52:07;3.08;;;1.60;;
70733;SDS011;58320;48.804;9.252;2023-02-01T01:54:43;3.63;;;1.98;;
70733;SDS011;58320;48.804;9.252;2023-02-01T01:57:14;3.37;;;1.77;;
70733;SDS011;58320;48.804;9.252;2023-02-01T01:59:53;3.38;;;1.55;;
70733;SDS011;58320;48.804;9.252;2023-02-01T02:02:33;3.65;;;1.80;;
70733;SDS011;58320;48.804;9.252;2023-02-01T02:05:00;3.95;;;1.80;;
70733;SDS011;58320;48.804;9.252;2023-02-01T02:07:27;4.20;;;2.22;;
70733;SDS011;58320;48.804;9.252;2023-02-01T02:09:57;3.67;;;2.00;;
70733;SDS011;58320;48.804;9.252;2023-02-01T02:12:23;3.42;;;1.95;;
70733;SDS011;58320;48.804;9.252;2023-02-01T02:14:48;3.53;;;1.85;;
70733;SDS011;58320;48.804;9.252;2023-02-01T02:40:04;3.80;;;2.10;;
70733;SDS011;58320;48.804;9.252;2023-02-01T02:45:54;4.10;;;2.07;;
70733;SDS011;58320;48.804;9.252;2023-02-01T02:48:52;4.28;;;2.33;;
70733;SDS011;58320;48.804;9.252;2023-02-01T02:51:30;4.20;;;2.25;;
70733;SDS011;58320;48.804;9.252;2023-02-01T02:54:22;4.43;;;1.90;;
70733;SDS011;58320;48.804;9.252;2023-02-01T02:57:12;5.28;;;2.33;;
70733;SDS011;58320;48.804;9.252;2023-02-01T03:00:03;4.80;;;2.00;;
70733;SDS011;58320;48.804;9.252;2023-02-01T03:02:52;5.68;;;2.20;;
70733;SDS011;58320;48.804;9.252;2023-02-01T03:05:40;4.32;;;2.72;;
70733;SDS011;58320;48.804;9.252;2023-02-01T03:08:14;4.35;;;2.17;;
70733;SDS011;58320;48.804;9.252;2023-02-01T03:13:56;4.00;;;2.00;;
70733;SDS011;58320;48.804;9.252;2023-02-01T03:19:23;4.22;;;2.67;;
70733;SDS011;58320;48.804;9.252;2023-02-01T03:22:11;4.68;;;2.10;;
70733;SDS011;58320;48.804;9.252;2023-02-01T03:24:47;6.65;;;2.20;;
70733;SDS011;58320;48.804;9.252;2023-02-01T03:27:35;3.77;;;2.07;;
70733;SDS011;58320;48.804;9.252;2023-02-01T03:32:53;4.07;;;2.72;;
70733;SDS011;58320;48.804;9.252;2023-02-01T03:35:28;4.93;;;2.40;;
70733;SDS011;58320;48.804;9.252;2023-02-01T03:38:30;4.55;;;2.53;;
70733;SDS011;58320;48.804;9.252;2023-02-01T03:41:50;5.80;;;2.67;;
70733;SDS011;58320;48.804;9.252;2023-02-01T03:46:54;3.90;;;2.25;;
70733;SDS011;58320;48.804;9.252;2023-02-01T03:49:37;4.18;;;2.20;;
70733;SDS011;58320;48.804;9.252;2023-02-01T03:52:09;4.03;;;2.50;;
70733;SDS011;58320;48.804;9.252;2023-02-01T03:54:42;4.73;;;2.37;;
70733;SDS011;58320;48.804;9.252;2023-02-01T03:57:09;4.20;;;2.10;;
70733;SDS011;58320;48.804;9.252;2023-02-01T03:59:40;4.97;;;2.38;;
70733;SDS011;58320;48.804;9.252;2023-02-01T04:02:08;3.97;;;2.00;;
70733;SDS011;58320;48.804;9.252;2023-02-01T04:04:34;4.45;;;2.22;;
70733;SDS011;58320;48.804;9.252;2023-02-01T04:07:01;4.30;;;1.93;;
70733;SDS011;58320;48.804;9.252;2023-02-01T04:09:27;4.97;;;2.35;;
70733;SDS011;58320;48.804;9.252;2023-02-01T04:11:52;4.03;;;2.28;;
70733;SDS011;58320;48.804;9.252;2023-02-01T04:14:18;6.50;;;2.97;;
70733;SDS011;58320;48.804;9.252;2023-02-01T04:16:44;4.32;;;2.17;;
70733;SDS011;58320;48.804;9.252;2023-02-01T04:19:10;6.38;;;2.60;;
70733;SDS011;58320;48.804;9.252;2023-02-01T04:21:35;4.30;;;2.40;;
70733;SDS011;58320;48.804;9.252;2023-02-01T04:24:01;3.92;;;1.92;;
70733;SDS011;58320;48.804;9.252;2023-02-01T04:26:27;3.77;;;2.20;;
70733;SDS011;58320;48.804;9.252;2023-02-01T04:28:53;4.00;;;2.25;;
70733;SDS011;58320;48.804;9.252;2023-02-01T04:31:18;5.00;;;2.50;;
70733;SDS011;58320;48.804;9.252;2023-02-01T04:33:53;5.65;;;2.40;;
70733;SDS011;58320;48.804;9.252;2023-02-01T04:36:22;5.22;;;2.60;;
70733;SDS011;58320;48.804;9.252;2023-02-01T04:38:48;4.78;;;2.67;;
70733;SDS011;58320;48.804;9.252;2023-02-01T04:41:15;4.40;;;2.63;;
70733;SDS011;58320;48.804;9.252;2023-02-01T04:43:44;6.23;;;3.40;;
70733;SDS011;58320;48.804;9.252;2023-02-01T04:46:13;5.03;;;3.03;;
70733;SDS011;58320;48.804;9.252;2023-02-01T04:48:39;5.55;;;3.10;;
70733;SDS011;58320;48.804;9.252;2023-02-01T04:51:06;5.28;;;2.90;;
70733;SDS011;58320;48.804;9.252;2023-02-01T04:53:31;4.50;;;2.60;;
70733;SDS011;58320;48.804;9.252;2023-02-01T04:55:57;5.47;;;2.80;;
70733;SDS011;58320;48.804;9.252;2023-02-01T04:58:23;5.07;;;2.50;;
70733;SDS011;58320;48.804;9.252;2023-02-01T05:00:49;5.63;;;2.50;;
70733;SDS011;58320;48.804;9.252;2023-02-01T05:03:15;5.47;;;2.70;;
70733;SDS011;58320;48.804;9.252;2023-02-01T05:05:41;4.10;;;2.10;;
70733;SDS011;58320;48.804;9.252;2023-02-01T05:08:06;5.73;;;2.60;;
70733;SDS011;58320;48.804;9.252;2023-02-01T05:10:32;5.10;;;2.33;;
70733;SDS011;58320;48.804;9.252;2023-02-01T05:12:58;3.47;;;1.83;;
70733;SDS011;58320;48.804;9.252;2023-02-01T05:15:42;5.70;;;2.47;;
70733;SDS011;58320;48.804;9.252;2023-02-01T05:18:08;4.15;;;2.15;;
70733;SDS011;58320;48.804;9.252;2023-02-01T05:20:33;3.97;;;2.42;;
70733;SDS011;58320;48.804;9.252;2023-02-01T05:22:59;5.37;;;2.43;;
70733;SDS011;58320;48.804;9.252;2023-02-01T05:25:25;4.55;;;2.40;;
70733;SDS011;58320;48.804;9.252;2023-02-01T05:27:51;5.73;;;2.40;;
70733;SDS011;58320;48.804;9.252;2023-02-01T05:30:18;4.20;;;2.05;;
70733;SDS011;58320;48.804;9.252;2023-02-01T05:32:44;4.10;;;2.50;;
70733;SDS011;58320;48.804;9.252;2023-02-01T05:35:10;5.70;;;3.17;;
70733;SDS011;58320;48.804;9.252;2023-02-01T05:37:36;7.10;;;2.90;;
70733;SDS011;58320;48.804;9.252;2023-02-01T05:40:01;8.03;;;4.70;;
70733;SDS011;58320;48.804;9.252;2023-02-01T05:42:27;8.10;;;3.87;;
70733;SDS011;58320;48.804;9.252;2023-02-01T05:44:53;4.93;;;2.95;;
70733;SDS011;58320;48.804;9.252;2023-02-01T05:47:19;7.10;;;3.50;;
70733;SDS011;58320;48.804;9.252;2023-02-01T05:49:45;6.40;;;3.15;;
70733;SDS011;58320;48.804;9.252;2023-02-01T05:52:11;7.93;;;3.63;;
70733;SDS011;58320;48.804;9.252;2023-02-01T05:54:37;17.97;;;6.27;;
70733;SDS011;58320;48.804;9.252;2023-02-01T05:57:02;5.28;;;2.53;;
70733;SDS011;58320;48.804;9.252;2023-02-01T05:59:28;4.83;;;2.73;;
70733;SDS011;58320;48.804;9.252;2023-02-01T06:01:54;4.15;;;2.28;;
70733;SDS011;58320;48.804;9.252;2023-02-01T06:04:20;4.30;;;2.08;;
70733;SDS011;58320;48.804;9.252;2023-02-01T06:06:45;4.27;;;2.30;;
70733;SDS011;58320;48.804;9.252;2023-02-01T06:09:11;4.50;;;2.38;;
70733;SDS011;58320;48.804;9.252;2023-02-01T06:11:37;3.67;;;2.00;;
70733;SDS011;58320;48.804;9.252;2023-02-01T06:14:05;4.50;;;2.17;;
70733;SDS011;58320;48.804;9.252;2023-02-01T06:16:32;4.90;;;2.78;;
70733;SDS011;58320;48.804;9.252;2023-02-01T06:18:58;4.22;;;2.25;;
70733;SDS011;58320;48.804;9.252;2023-02-01T06:21:24;3.50;;;1.80;;
70733;SDS011;58320;48.804;9.252;2023-02-01T06:23:51;4.40;;;2.50;;
70733;SDS011;58320;48.804;9.252;2023-02-01T06:26:20;3.40;;;2.00;;
70733;SDS011;58320;48.804;9.252;2023-02-01T06:28:46;4.20;;;1.98;;
70733;SDS011;58320;48.804;9.252;2023-02-01T06:31:11;3.27;;;2.00;;
70733;SDS011;58320;48.804;9.252;2023-02-01T06:33:37;4.05;;;2.20;;
70733;SDS011;58320;48.804;9.252;2023-02-01T06:36:05;4.85;;;2.20;;
70733;SDS011;58320;48.804;9.252;2023-02-01T06:38:33;4.10;;;2.07;;
70733;SDS011;58320;48.804;9.252;2023-02-01T06:41:02;4.80;;;1.98;;
70733;SDS011;58320;48.804;9.252;2023-02-01T06:43:29;4.53;;;2.47;;
70733;SDS011;58320;48.804;9.252;2023-02-01T06:46:02;3.38;;;1.70;;
70733;SDS011;58320;48.804;9.252;2023-02-01T06:48:30;3.92;;;1.98;;
70733;SDS011;58320;48.804;9.252;2023-02-01T06:50:57;4.93;;;2.10;;
70733;SDS011;58320;48.804;9.252;2023-02-01T06:53:23;4.28;;;2.20;;
70733;SDS011;58320;48.804;9.252;2023-02-01T06:55:55;4.88;;;2.10;;
70733;SDS011;58320;48.804;9.252;2023-02-01T06:58:24;5.20;;;2.25;;
70733;SDS011;58320;48.804;9.252;2023-02-01T07:00:53;3.73;;;2.20;;
70733;SDS011;58320;48.804;9.252;2023-02-01T07:03:19;4.43;;;2.10;;
70733;SDS011;58320;48.804;9.252;2023-02-01T07:05:45;5.90;;;3.00;;
70733;SDS011;58320;48.804;9.252;2023-02-01T07:08:10;6.13;;;2.37;;
70733;SDS011;58320;48.804;9.252;2023-02-01T07:10:37;4.18;;;2.50;;
70733;SDS011;58320;48.804;9.252;2023-02-01T07:13:03;4.53;;;2.00;;
70733;SDS011;58320;48.804;9.252;2023-02-01T07:15:29;4.43;;;2.45;;
70733;SDS011;58320;48.804;9.252;2023-02-01T07:17:55;4.73;;;2.70;;
70733;SDS011;58320;48.804;9.252;2023-02-01T07:20:21;5.95;;;2.63;;
70733;SDS011;58320;48.804;9.252;2023-02-01T07:22:47;5.18;;;2.50;;
70733;SDS011;58320;48.804;9.252;2023-02-01T07:25:13;5.40;;;2.60;;
70733;SDS011;58320;48.804;9.252;2023-02-01T07:27:39;4.90;;;2.65;;
70733;SDS011;58320;48.804;9.252;2023-02-01T07:30:05;9.47;;;3.90;;
70733;SDS011;58320;48.804;9.252;2023-02-01T07:32:32;6.35;;;2.38;;
70733;SDS011;58320;48.804;9.252;2023-02-01T07:34:58;6.25;;;2.60;;
70733;SDS011;58320;48.804;9.252;2023-02-01T07:37:24;5.95;;;3.10;;
70733;SDS011;58320;48.804;9.252;2023-02-01T07:39:53;4.90;;;2.70;;
70733;SDS011;58320;48.804;9.252;2023-02-01T07:42:18;6.47;;;2.63;;
70733;SDS011;58320;48.804;9.252;2023-02-01T07:44:44;5.18;;;2.40;;
70733;SDS011;58320;48.804;9.252;2023-02-01T07:47:10;5.50;;;3.00;;
70733;SDS011;58320;48.804;9.252;2023-02-01T07:49:36;5.83;;;2.77;;
70733;SDS011;58320;48.804;9.252;2023-02-01T07:52:02;5.72;;;2.75;;
70733;SDS011;58320;48.804;9.252;2023-02-01T07:54:28;7.50;;;2.80;;
70733;SDS011;58320;48.804;9.252;2023-02-01T07:56:53;5.47;;;2.60;;
70733;SDS011;58320;48.804;9.252;2023-02-01T07:59:19;4.57;;;2.30;;
70733;SDS011;58320;48.804;9.252;2023-02-01T08:01:45;6.23;;;2.57;;
70733;SDS011;58320;48.804;9.252;2023-02-01T08:04:11;5.40;;;2.80;;
70733;SDS011;58320;48.804;9.252;2023-02-01T08:06:38;6.33;;;2.87;;
70733;SDS011;58320;48.804;9.252;2023-02-01T08:09:04;4.53;;;2.58;;
70733;SDS011;58320;48.804;9.252;2023-02-01T08:11:32;5.32;;;2.80;;
70733;SDS011;58320;48.804;9.252;2023-02-01T08:13:58;4.57;;;2.50;;
70733;SDS011;58320;48.804;9.252;2023-02-01T08:16:25;4.00;;;2.00;;
70733;SDS011;58320;48.804;9.252;2023-02-01T08:18:51;5.18;;;2.35;;
70733;SDS011;58320;48.804;9.252;2023-02-01T08:21:21;8.20;;;2.63;;
70733;SDS011;58320;48.804;9.252;2023-02-01T08:23:50;7.43;;;3.03;;
70733;SDS011;58320;48.804;9.252;2023-02-01T08:28:55;11.30;;;5.17;;
70733;SDS011;58320;48.804;9.252;2023-02-01T08:31:25;8.43;;;3.53;;
70733;SDS011;58320;48.804;9.252;2023-02-01T08:33:53;10.70;;;4.25;;
70733;SDS011;58320;48.804;9.252;2023-02-01T08:36:23;8.27;;;3.22;;
70733;SDS011;58320;48.804;9.252;2023-02-01T08:38:50;6.70;;;3.05;;
70733;SDS011;58320;48.804;9.252;2023-02-01T08:41:17;9.17;;;4.13;;
70733;SDS011;58320;48.804;9.252;2023-02-01T08:43:46;5.53;;;2.90;;
70733;SDS011;58320;48.804;9.252;2023-02-01T08:46:12;10.82;;;5.45;;
70733;SDS011;58320;48.804;9.252;2023-02-01T08:48:39;12.88;;;4.35;;
70733;SDS011;58320;48.804;9.252;2023-02-01T08:51:09;8.90;;;3.75;;
70733;SDS011;58320;48.804;9.252;2023-02-01T08:53:38;8.10;;;3.23;;
70733;SDS011;58320;48.804;9.252;2023-02-01T08:56:09;8.23;;;2.70;;
70733;SDS011;58320;48.804;9.252;2023-02-01T08:58:37;8.27;;;3.10;;
70733;SDS011;58320;48.804;9.252;2023-02-01T09:01:04;7.60;;;2.85;;
70733;SDS011;58320;48.804;9.252;2023-02-01T09:03:40;7.57;;;2.78;;
70733;SDS011;58320;48.804;9.252;2023-02-01T09:06:07;8.07;;;3.57;;
70733;SDS011;58320;48.804;9.252;2023-02-01T09:08:37;7.78;;;3.00;;
70733;SDS011;58320;48.804;9.252;2023-02-01T09:11:05;9.18;;;4.00;;
70733;SDS011;58320;48.804;9.252;2023-02-01T09:13:35;6.78;;;2.67;;
70733;SDS011;58320;48.804;9.252;2023-02-01T09:16:01;7.10;;;2.80;;
70733;SDS011;58320;48.804;9.252;2023-02-01T09:18:28;8.98;;;2.65;;
70733;SDS011;58320;48.804;9.252;2023-02-01T09:20:54;7.60;;;2.65;;
70733;SDS011;58320;48.804;9.252;2023-02-01T09:23:19;8.17;;;2.90;;
70733;SDS011;58320;48.804;9.252;2023-02-01T09:25:45;9.50;;;2.50;;
70733;SDS011;58320;48.804;9.252;2023-02-01T09:28:13;8.18;;;2.45;;
70733;SDS011;58320;48.804;9.252;2023-02-01T09:30:39;9.47;;;3.33;;
70733;SDS011;58320;48.804;9.252;2023-02-01T09:33:04;5.90;;;2.85;;
70733;SDS011;58320;48.804;9.252;2023-02-01T09:35:30;8.20;;;2.67;;
70733;SDS011;58320;48.804;9.252;2023-02-01T09:37:56;7.53;;;2.33;;
70733;SDS011;58320;48.804;9.252;2023-02-01T09:40:22;11.07;;;2.80;;
70733;SDS011;58320;48.804;9.252;2023-02-01T09:48:38;11.10;;;3.22;;
70733;SDS011;58320;48.804;9.252;2023-02-01T09:51:11;7.75;;;2.95;;
70733;SDS011;58320;48.804;9.252;2023-02-01T09:53:44;9.38;;;2.60;;
70733;SDS011;58320;48.804;9.252;2023-02-01T09:56:56;7.93;;;3.17;;
70733;SDS011;58320;48.804;9.252;2023-02-01T09:59:40;9.98;;;2.75;;
70733;SDS011;58320;48.804;9.252;2023-02-01T10:02:23;6.38;;;2.50;;
70733;SDS011;58320;48.804;9.252;2023-02-01T10:04:52;8.90;;;2.40;;
70733;SDS011;58320;48.804;9.252;2023-02-01T10:10:26;12.83;;;2.93;;
70733;SDS011;58320;48.804;9.252;2023-02-01T10:29:57;7.45;;;2.70;;
70733;SDS011;58320;48.804;9.252;2023-02-01T10:32:31;8.75;;;2.70;;
70733;SDS011;58320;48.804;9.252;2023-02-01T10:35:04;9.10;;;3.22;;
70733;SDS011;58320;48.804;9.252;2023-02-01T10:37:48;13.83;;;2.33;;
70733;SDS011;58320;48.804;9.252;2023-02-01T10:40:17;12.15;;;2.50;;
70733;SDS011;58320;48.804;9.252;2023-02-01T10:42:50;7.35;;;2.17;;
70733;SDS011;58320;48.804;9.252;2023-02-01T10:45:20;6.50;;;2.10;;
70733;SDS011;58320;48.804;9.252;2023-02-01T10:47:49;9.95;;;2.55;;
70733;SDS011;58320;48.804;9.252;2023-02-01T10:50:31;6.97;;;2.63;;
70733;SDS011;58320;48.804;9.252;2023-02-01T10:53:57;8.10;;;2.85;;
70733;SDS011;58320;48.804;9.252;2023-02-01T10:56:07;8.88;;;2.65;;
70733;SDS011;58320;48.804;9.252;2023-02-01T10:58:35;10.45;;;2.88;;
70733;SDS011;58320;48.804;9.252;2023-02-01T11:01:09;8.38;;;2.72;;
70733;SDS011;58320;48.804;9.252;2023-02-01T11:03:52;10.27;;;2.40;;
70733;SDS011;58320;48.804;9.252;2023-02-01T11:06:40;9.50;;;2.72;;
70733;SDS011;58320;48.804;9.252;2023-02-01T11:09:19;10.57;;;2.58;;
70733;SDS011;58320;48.804;9.252;2023-02-01T11:14:26;8.73;;;2.10;;
70733;SDS011;58320;48.804;9.252;2023-02-01T11:17:02;7.57;;;2.58;;
70733;SDS011;58320;48.804;9.252;2023-02-01T11:19:38;10.90;;;3.00;;
70733;SDS011;58320;48.804;9.252;2023-02-01T11:22:09;11.32;;;3.22;;
70733;SDS011;58320;48.804;9.252;2023-02-01T11:24:37;9.90;;;2.50;;
70733;SDS011;58320;48.804;9.252;2023-02-01T11:27:12;10.70;;;2.33;;
70733;SDS011;58320;48.804;9.252;2023-02-01T11:29:43;7.53;;;2.17;;
70733;SDS011;58320;48.804;9.252;2023-02-01T11:32:15;9.77;;;2.30;;
70733;SDS011;58320;48.804;9.252;2023-02-01T11:34:49;6.40;;;2.22;;
70733;SDS011;58320;48.804;9.252;2023-02-01T11:37:36;7.90;;;2.40;;
70733;SDS011;58320;48.804;9.252;2023-02-01T11:42:56;7.85;;;2.20;;
70733;SDS011;58320;48.804;9.252;2023-02-01T11:45:27;8.45;;;2.10;;
70733;SDS011;58320;48.804;9.252;2023-02-01T11:47:55;9.73;;;2.85;;
70733;SDS011;58320;48.804;9.252;2023-02-01T12:06:49;7.28;;;1.90;;
70733;SDS011;58320;48.804;9.252;2023-02-01T12:21:02;6.43;;;1.83;;
70733;SDS011;58320;48.804;9.252;2023-02-01T12:35:16;7.40;;;1.75;;
70733;SDS011;58320;48.804;9.252;2023-02-01T12:44:35;5.90;;;2.20;;
70733;SDS011;58320;48.804;9.252;2023-02-01T12:47:22;9.97;;;2.43;;
70733;SDS011;58320;48.804;9.252;2023-02-01T12:50:18;6.78;;;2.70;;
70733;SDS011;58320;48.804;9.252;2023-02-01T12:52:54;4.93;;;1.77;;
70733;SDS011;58320;48.804;9.252;2023-02-01T12:55:44;7.75;;;1.55;;
70733;SDS011;58320;48.804;9.252;2023-02-01T13:04:10;6.25;;;2.03;;
70733;SDS011;58320;48.804;9.252;2023-02-01T13:06:43;8.68;;;2.25;;
70733;SDS011;58320;48.804;9.252;2023-02-01T13:11:48;9.50;;;2.47;;
70733;SDS011;58320;48.804;9.252;2023-02-01T13:17:19;9.70;;;2.38;;
70733;SDS011;58320;48.804;9.252;2023-02-01T13:19:57;7.88;;;2.53;;
70733;SDS011;58320;48.804;9.252;2023-02-01T13:22:37;8.38;;;2.60;;
70733;SDS011;58320;48.804;9.252;2023-02-01T13:25:12;10.68;;;2.10;;
70733;SDS011;58320;48.804;9.252;2023-02-01T13:27:49;7.43;;;2.73;;
70733;SDS011;58320;48.804;9.252;2023-02-01T13:30:26;11.57;;;2.45;;
70733;SDS011;58320;48.804;9.252;2023-02-01T13:44:43;12.88;;;2.33;;
70733;SDS011;58320;48.804;9.252;2023-02-01T13:47:22;6.47;;;2.00;;
70733;SDS011;58320;48.804;9.252;2023-02-01T13:49:48;7.00;;;1.70;;
70733;SDS011;58320;48.804;9.252;2023-02-01T13:52:24;9.18;;;1.92;;
70733;SDS011;58320;48.804;9.252;2023-02-01T13:57:44;9.57;;;2.65;;
70733;SDS011;58320;48.804;9.252;2023-02-01T14:00:31;8.27;;;2.30;;
70733;SDS011;58320;48.804;9.252;2023-02-01T14:13:23;8.07;;;2.60;;
70733;SDS011;58320;48.804;9.252;2023-02-01T15:01:15;6.60;;;2.30;;
70733;SDS011;58320;48.804;9.252;2023-02-01T15:06:36;7.85;;;2.20;;
70733;SDS011;58320;48.804;9.252;2023-02-01T15:09:14;9.32;;;2.35;;
70733;SDS011;58320;48.804;9.252;2023-02-01T15:14:35;10.43;;;2.20;;
70733;SDS011;58320;48.804;9.252;2023-02-01T15:17:16;6.50;;;2.15;;
70733;SDS011;58320;48.804;9.252;2023-02-01T15:19:59;7.40;;;2.47;;
70733;SDS011;58320;48.804;9.252;2023-02-01T15:22:40;6.60;;;2.33;;
70733;SDS011;58320;48.804;9.252;2023-02-01T15:25:21;6.97;;;2.28;;
70733;SDS011;58320;48.804;9.252;2023-02-01T15:28:08;7.47;;;2.37;;
70733;SDS011;58320;48.804;9.252;2023-02-01T15:30:39;8.63;;;2.50;;
70733;SDS011;58320;48.804;9.252;2023-02-01T15:35:43;8.55;;;2.53;;
70733;SDS011;58320;48.804;9.252;2023-02-01T15:38:31;9.70;;;2.23;;
70733;SDS011;58320;48.804;9.252;2023-02-01T15:43:36;7.68;;;2.13;;
70733;SDS011;58320;48.804;9.252;2023-02-01T15:46:58;5.95;;;1.70;;
70733;SDS011;58320;48.804;9.252;2023-02-01T15:49:30;5.95;;;2.45;;
70733;SDS011;58320;48.804;9.252;2023-02-01T15:52:01;5.30;;;2.07;;
70733;SDS011;58320;48.804;9.252;2023-02-01T15:54:32;7.30;;;2.05;;
70733;SDS011;58320;48.804;9.252;2023-02-01T15:57:11;7.05;;;2.30;;
70733;SDS011;58320;48.804;9.252;2023-02-01T15:59:55;6.68;;;2.05;;
70733;SDS011;58320;48.804;9.252;2023-02-01T16:02:36;5.05;;;2.17;;
70733;SDS011;58320;48.804;9.252;2023-02-01T16:08:10;6.13;;;2.25;;
70733;SDS011;58320;48.804;9.252;2023-02-01T16:10:44;11.50;;;2.60;;
70733;SDS011;58320;48.804;9.252;2023-02-01T16:13:13;6.75;;;2.15;;
70733;SDS011;58320;48.804;9.252;2023-02-01T16:15:41;9.23;;;2.08;;
70733;SDS011;58320;48.804;9.252;2023-02-01T16:18:07;12.17;;;2.57;;
70733;SDS011;58320;48.804;9.252;2023-02-01T16:20:35;9.02;;;1.90;;
70733;SDS011;58320;48.804;9.252;2023-02-01T16:23:04;6.68;;;2.58;;
70733;SDS011;58320;48.804;9.252;2023-02-01T16:25:31;6.20;;;1.80;;
70733;SDS011;58320;48.804;9.252;2023-02-01T16:27:57;11.55;;;2.78;;
70733;SDS011;58320;48.804;9.252;2023-02-01T16:30:23;10.73;;;2.00;;
70733;SDS011;58320;48.804;9.252;2023-02-01T16:32:51;7.25;;;2.00;;
70733;SDS011;58320;48.804;9.252;2023-02-01T16:35:28;6.15;;;1.90;;
70733;SDS011;58320;48.804;9.252;2023-02-01T16:38:01;8.48;;;2.00;;
70733;SDS011;58320;48.804;9.252;2023-02-01T16:40:37;8.83;;;2.03;;
70733;SDS011;58320;48.804;9.252;2023-02-01T16:43:22;11.80;;;2.08;;
70733;SDS011;58320;48.804;9.252;2023-02-01T16:45:52;7.63;;;2.60;;
70733;SDS011;58320;48.804;9.252;2023-02-01T16:50:54;6.88;;;1.95;;
70733;SDS011;58320;48.804;9.252;2023-02-01T16:53:27;7.23;;;2.07;;
70733;SDS011;58320;48.804;9.252;2023-02-01T16:55:54;7.88;;;2.13;;
70733;SDS011;58320;48.804;9.252;2023-02-01T16:58:23;9.38;;;2.50;;
70733;SDS011;58320;48.804;9.252;2023-02-01T17:00:50;8.55;;;1.92;;
70733;SDS011;58320;48.804;9.252;2023-02-01T17:03:17;5.80;;;2.17;;
70733;SDS011;58320;48.804;9.252;2023-02-01T17:05:45;8.57;;;1.90;;
70733;SDS011;58320;48.804;9.252;2023-02-01T17:08:17;10.27;;;2.38;;
70733;SDS011;58320;48.804;9.252;2023-02-01T17:10:55;12.40;;;2.38;;
70733;SDS011;58320;48.804;9.252;2023-02-01T17:13:22;7.32;;;2.25;;
70733;SDS011;58320;48.804;9.252;2023-02-01T17:15:52;9.63;;;2.42;;
70733;SDS011;58320;48.804;9.252;2023-02-01T17:18:23;9.90;;;2.20;;
70733;SDS011;58320;48.804;9.252;2023-02-01T17:20:55;6.45;;;1.70;;
70733;SDS011;58320;48.804;9.252;2023-02-01T17:23:24;7.38;;;2.50;;
70733;SDS011;58320;48.804;9.252;2023-02-01T17:25:53;10.73;;;2.13;;
70733;SDS011;58320;48.804;9.252;2023-02-01T17:28:19;5.60;;;1.90;;
70733;SDS011;58320;48.804;9.252;2023-02-01T17:30:45;8.40;;;2.13;;
70733;SDS011;58320;48.804;9.252;2023-02-01T17:33:16;7.57;;;1.90;;
70733;SDS011;58320;48.804;9.252;2023-02-01T17:35:51;5.20;;;2.00;;
70733;SDS011;58320;48.804;9.252;2023-02-01T17:38:22;9.52;;;2.38;;
70733;SDS011;58320;48.804;9.252;2023-02-01T17:40:48;9.75;;;2.70;;
70733;SDS011;58320;48.804;9.252;2023-02-01T17:43:15;6.03;;;2.20;;
70733;SDS011;58320;48.804;9.252;2023-02-01T17:45:51;9.02;;;2.20;;
70733;SDS011;58320;48.804;9.252;2023-02-01T17:48:20;8.30;;;2.00;;
70733;SDS011;58320;48.804;9.252;2023-02-01T17:50:47;8.18;;;2.08;;
70733;SDS011;58320;48.804;9.252;2023-02-01T17:53:18;9.98;;;2.63;;
70733;SDS011;58320;48.804;9.252;2023-02-01T17:55:48;9.83;;;2.53;;
70733;SDS011;58320;48.804;9.252;2023-02-01T17:58:14;6.18;;;2.55;;
70733;SDS011;58320;48.804;9.252;2023-02-01T18:00:41;6.75;;;2.22;;
70733;SDS011;58320;48.804;9.252;2023-02-01T18:03:20;7.32;;;2.42;;
70733;SDS011;58320;48.804;9.252;2023-02-01T18:05:56;8.50;;;2.20;;
70733;SDS011;58320;48.804;9.252;2023-02-01T18:08:24;8.90;;;2.30;;
70733;SDS011;58320;48.804;9.252;2023-02-01T18:10:57;6.50;;;2.35;;
70733;SDS011;58320;48.804;9.252;2023-02-01T18:13:25;8.77;;;2.22;;
70733;SDS011;58320;48.804;9.252;2023-02-01T18:15:52;11.18;;;3.22;;
70733;SDS011;58320;48.804;9.252;2023-02-01T18:18:18;10.30;;;2.83;;
70733;SDS011;58320;48.804;9.252;2023-02-01T18:20:44;6.45;;;2.38;;
70733;SDS011;58320;48.804;9.252;2023-02-01T18:23:21;11.50;;;2.70;;
70733;SDS011;58320;48.804;9.252;2023-02-01T18:25:48;10.67;;;2.77;;
70733;SDS011;58320;48.804;9.252;2023-02-01T18:28:16;11.65;;;2.65;;
70733;SDS011;58320;48.804;9.252;2023-02-01T18:30:44;9.85;;;3.03;;
70733;SDS011;58320;48.804;9.252;2023-02-01T18:33:13;7.80;;;2.55;;
70733;SDS011;58320;48.804;9.252;2023-02-01T18:35:41;8.90;;;2.88;;
70733;SDS011;58320;48.804;9.252;2023-02-01T18:38:07;8.80;;;2.50;;
70733;SDS011;58320;48.804;9.252;2023-02-01T18:40:48;9.98;;;3.03;;
70733;SDS011;58320;48.804;9.252;2023-02-01T18:43:17;5.13;;;2.25;;
70733;SDS011;58320;48.804;9.252;2023-02-01T18:45:44;11.27;;;2.45;;